Northeast Coast - Cape St. John and south: Past 24 Hour Conditions

 

Miscou Island

06:00 PM AST 27 January 2015
Disclaimer

This table is a summary of hourly weather conditions for the past 24 hours.
Please note that these observations might not always be representative of weather conditions over their associated marine area.

Date / Time
(AST)
Wind(knots) Conditions Visibility(km) Pressure(kPa) Air tempC) Relative humidity(%) Dew pointC) Wind Chill
27 January 2015
18:00 NNE 28 gust 36 N/A N/A 101.6 -12 94 -13 -25
17:00 NNE 28 gust 34 N/A N/A 101.7 -13 93 -13 -25
16:00 NNE 28 gust 34 N/A N/A 101.8 -13 93 -14 -26
15:00 NNE 27 gust 40 N/A N/A 101.9 -13 93 -14 -26
14:00 NNE 29 gust 39 N/A N/A 102.1 -13 92 -14 -27
13:00 NNE 27 gust 33 N/A N/A 102.3 -13 92 -14 -26
12:00 NNE 25 gust 36 N/A N/A 102.4 -13 85 -15 -25
11:00 NNE 25 gust 36 N/A N/A 102.5 -12 83 -15 -25
10:00 NE 27 gust 36 N/A N/A 102.7 -12 82 -15 -25
9:00 NE 22 gust 31 N/A N/A 102.9 -13 82 -15 -25
8:00 NNE 23 gust 30 N/A N/A 102.9 -14 82 -16 -26
7:00 NE 20 gust 26 N/A N/A 103.0 -13 79 -16 -25
6:00 NE 18 gust 24 N/A N/A 103.0 -13 76 -17 -24
5:00 NE 20 gust 25 N/A N/A 103.0 -13 74 -17 -25
4:00 NNE 17 gust 24 N/A N/A 103.0 -13 79 -16 -24
3:00 NNE 16 gust 23 N/A N/A 103.0 -13 77 -16 -24
2:00 NNE 13 gust 22 N/A N/A 103.1 -13 73 -17 -23
1:00 N 16 N/A N/A 103.1 -13 70 -18 -24
0:00 N 14 N/A N/A 103.1 -13 63 -19 -23
26 January 2015
23:00 N 9 N/A N/A 103.1 -13 64 -19 -21
22:00 N 9 N/A N/A 103.0 -14 69 -18 -22
21:00 NW 15 N/A N/A 102.9 -14 65 -19 -24
20:00 WNW 10 gust 15 N/A N/A 102.8 -14 58 -21 -23
19:00 WNW 10 N/A N/A 102.7 -15 59 -21 -23
18:00 W 8 N/A N/A 102.5 -15 62 -20 -22
Map of Atlantic - Newfoundland marine weather areas Southwestern Grand Banks - 44138 Banquereau - 44139 Tail of the Bank - 44140 Nickerson Bank - 44251 Northeast Burgeo Bank - 44255 Blanc-Sablon Airport Cap Whittle Chevery Natashquan Airport Heath Point Miscou Island Grand Étang Ingonish Beach North Mountain St.Paul Island J.A. Douglas McCurdy Sydney Airport Charlottetown Airport East Point North Cape Argentia Bonavista Burgeo Cape Race Corner Brook Daniel's Harbour Englee Ferolle Point La Scie Port aux Basques Rocky Harbour Sagona Island St. Anthony Airport St. John's Int'l Airport St. Lawrence Stephenville Airport Twillingate Winterland Wreckhouse Cartwright Airport Mary's Harbour Grates Cove Pool's Island Marticot Island Long Pond Îles de la Madeleine Airport
Legend:
buoy Buoy
land station Land Station

Atlantic - Newfoundland Area

Another Region

What we are doing

Date modified: